createdAt,value
2022-08-02T00:00:41.132Z,17.83
2022-08-02T00:01:41.163Z,17.83
2022-08-02T00:02:41.122Z,17.82
2022-08-02T00:03:41.125Z,17.78
2022-08-02T00:04:41.122Z,17.85
2022-08-02T00:05:41.115Z,17.80
2022-08-02T00:06:41.112Z,17.89
2022-08-02T00:07:41.572Z,17.80
2022-08-02T00:08:41.106Z,17.85
2022-08-02T00:09:41.108Z,17.92
2022-08-02T00:10:41.103Z,17.94
2022-08-02T00:11:43.173Z,17.98
2022-08-02T00:12:41.096Z,18.05
2022-08-02T00:13:41.093Z,17.95
2022-08-02T00:14:41.095Z,17.97
2022-08-02T00:15:41.089Z,17.98
2022-08-02T00:16:41.082Z,18.00
2022-08-02T00:17:41.082Z,17.94
2022-08-02T00:18:41.081Z,17.92
2022-08-02T00:19:41.076Z,17.87
2022-08-02T00:20:41.077Z,17.92
2022-08-02T00:21:41.089Z,17.90
2022-08-02T00:22:41.069Z,17.82
2022-08-02T00:24:03.318Z,17.94
2022-08-02T00:24:41.063Z,17.92
2022-08-02T00:25:55.352Z,17.87
2022-08-02T00:26:41.057Z,17.95
2022-08-02T00:27:41.056Z,17.98
2022-08-02T00:28:41.051Z,17.95
2022-08-02T00:29:42.691Z,17.97
2022-08-02T00:30:41.049Z,18.01
2022-08-02T00:31:41.045Z,18.01
2022-08-02T00:32:41.038Z,18.07
2022-08-02T00:34:26.164Z,18.04
2022-08-02T00:34:41.035Z,18.08
2022-08-02T00:35:41.044Z,18.15
2022-08-02T00:36:41.030Z,18.11
2022-08-02T00:37:41.027Z,18.23
2022-08-02T00:38:41.027Z,18.19
2022-08-02T00:39:41.030Z,18.18
2022-08-02T00:40:41.020Z,18.18
2022-08-02T00:41:41.019Z,18.18
2022-08-02T00:42:41.017Z,18.28
2022-08-02T00:43:41.014Z,18.19
2022-08-02T00:44:41.008Z,18.23
2022-08-02T00:46:03.486Z,18.18
2022-08-02T00:46:41.005Z,18.22
2022-08-02T00:47:41.007Z,18.25
2022-08-02T00:48:43.099Z,18.23
2022-08-02T00:49:41.125Z,18.22
2022-08-02T00:50:40.993Z,18.28
2022-08-02T00:51:40.991Z,18.19
2022-08-02T00:52:40.986Z,18.28
2022-08-02T00:53:40.982Z,18.29
2022-08-02T00:54:40.981Z,18.33
2022-08-02T00:55:40.979Z,18.26
2022-08-02T00:56:40.981Z,18.31
2022-08-02T00:57:40.974Z,18.25
2022-08-02T00:58:40.971Z,18.23
2022-08-02T00:59:40.967Z,18.18
2022-08-02T01:00:40.975Z,18.18
2022-08-02T01:01:56.235Z,18.15
2022-08-02T01:02:40.966Z,18.15
2022-08-02T01:03:40.957Z,18.19
2022-08-02T01:04:40.955Z,18.16
2022-08-02T01:06:10.182Z,18.18
2022-08-02T01:06:40.950Z,18.15
2022-08-02T01:07:40.947Z,18.29
2022-08-02T01:08:40.944Z,18.31
2022-08-02T01:09:40.937Z,18.33
2022-08-02T01:10:40.942Z,18.29
2022-08-02T01:11:40.936Z,18.29
2022-08-02T01:12:40.938Z,18.31
2022-08-02T01:13:40.934Z,18.26
2022-08-02T01:14:40.942Z,18.33
2022-08-02T01:15:40.927Z,18.23
2022-08-02T01:16:40.925Z,18.19
2022-08-02T01:17:40.920Z,18.31
2022-08-02T01:18:40.918Z,18.33
2022-08-02T01:19:40.915Z,18.25
2022-08-02T01:20:40.910Z,18.26
2022-08-02T01:21:40.911Z,18.19
2022-08-02T01:23:00.641Z,18.33
2022-08-02T01:23:40.905Z,18.26
2022-08-02T01:24:40.902Z,18.26
2022-08-02T01:25:40.908Z,18.26
2022-08-02T01:26:40.897Z,18.34
2022-08-02T01:27:40.893Z,18.31
2022-08-02T01:28:40.892Z,18.26
2022-08-02T01:29:40.886Z,18.33
2022-08-02T01:30:40.889Z,18.20
2022-08-02T01:31:40.882Z,18.23
2022-08-02T01:32:40.881Z,18.31
2022-08-02T01:33:40.877Z,18.26
2022-08-02T01:34:40.873Z,18.35
2022-08-02T01:35:50.623Z,18.23
2022-08-02T01:36:40.867Z,18.31
2022-08-02T01:37:40.865Z,18.33
2022-08-02T01:38:40.865Z,18.31
2022-08-02T01:39:40.858Z,18.22
2022-08-02T01:40:40.860Z,18.35
2022-08-02T01:41:40.855Z,18.29
2022-08-02T01:42:40.853Z,18.31
2022-08-02T01:43:40.856Z,18.29
2022-08-02T01:44:40.910Z,18.26
2022-08-02T01:45:40.841Z,18.28
2022-08-02T01:46:40.842Z,18.40
2022-08-02T01:47:40.839Z,18.35
2022-08-02T01:48:40.836Z,18.35
2022-08-02T01:49:40.970Z,18.38
2022-08-02T01:50:40.831Z,18.33
2022-08-02T01:51:40.832Z,18.26
2022-08-02T01:52:40.828Z,18.31
2022-08-02T01:53:40.823Z,18.43
2022-08-02T01:54:40.822Z,18.25
2022-08-02T01:55:57.698Z,18.26
2022-08-02T01:56:40.819Z,18.28
2022-08-02T01:57:41.982Z,18.40
2022-08-02T01:58:40.814Z,18.29
2022-08-02T01:59:40.809Z,18.33
2022-08-02T02:00:40.808Z,18.40
2022-08-02T02:01:40.852Z,18.35
2022-08-02T02:02:40.805Z,18.29
2022-08-02T02:03:41.597Z,18.26
2022-08-02T02:04:40.792Z,18.28
2022-08-02T02:05:40.794Z,18.25
2022-08-02T02:06:40.788Z,18.22
2022-08-02T02:07:40.787Z,18.22
2022-08-02T02:08:40.783Z,18.16
2022-08-02T02:09:50.451Z,18.18
2022-08-02T02:10:40.778Z,18.19
2022-08-02T02:12:05.182Z,18.25
2022-08-02T02:12:40.773Z,18.19
2022-08-02T02:13:40.768Z,18.22
2022-08-02T02:14:40.768Z,18.23
2022-08-02T02:15:40.845Z,18.15
2022-08-02T02:16:40.765Z,18.11
2022-08-02T02:18:10.658Z,18.18
2022-08-02T02:18:40.757Z,18.20
2022-08-02T02:19:40.756Z,18.15
2022-08-02T02:20:40.750Z,18.11
2022-08-02T02:21:41.470Z,18.11
2022-08-02T02:22:40.743Z,18.16
2022-08-02T02:23:40.833Z,18.23
2022-08-02T02:24:40.740Z,18.23
2022-08-02T02:25:40.732Z,18.22
2022-08-02T02:26:40.737Z,18.11
2022-08-02T02:27:40.735Z,18.29
2022-08-02T02:28:40.727Z,18.20
2022-08-02T02:29:40.723Z,18.23
2022-08-02T02:30:40.723Z,18.15
2022-08-02T02:31:40.717Z,18.22
2022-08-02T02:32:40.715Z,18.18
2022-08-02T02:33:40.714Z,18.15
2022-08-02T02:34:40.709Z,18.10
2022-08-02T02:35:40.708Z,18.08
2022-08-02T02:36:40.705Z,18.05
2022-08-02T02:37:40.701Z,18.08
2022-08-02T02:38:40.700Z,18.01
2022-08-02T02:39:40.694Z,18.00
2022-08-02T02:40:40.691Z,18.10
2022-08-02T02:41:40.689Z,17.95
2022-08-02T02:42:41.182Z,18.04
2022-08-02T02:43:40.683Z,18.01
2022-08-02T02:44:40.680Z,18.03
2022-08-02T02:45:40.679Z,18.08
2022-08-02T02:46:40.672Z,18.05
2022-08-02T02:47:41.823Z,17.97
2022-08-02T02:48:40.667Z,18.00
2022-08-02T02:49:40.663Z,17.97
2022-08-02T02:50:40.662Z,17.94
2022-08-02T02:51:40.667Z,17.94
2022-08-02T02:52:40.653Z,17.90
2022-08-02T02:54:31.939Z,17.87
2022-08-02T02:54:40.650Z,17.89
2022-08-02T02:55:40.646Z,17.72
2022-08-02T02:56:40.643Z,17.67
2022-08-02T02:57:40.640Z,17.64
2022-08-02T02:58:40.650Z,17.59
2022-08-02T02:59:48.959Z,17.70
2022-08-02T03:00:40.670Z,17.63
2022-08-02T03:01:56.865Z,17.48
2022-08-02T03:02:40.623Z,17.51
2022-08-02T03:03:40.621Z,17.44
2022-08-02T03:04:57.026Z,17.45
2022-08-02T03:05:40.615Z,17.36
2022-08-02T03:06:40.611Z,17.41
2022-08-02T03:07:40.608Z,17.39
2022-08-02T03:08:40.608Z,17.33
2022-08-02T03:09:40.602Z,17.29
2022-08-02T03:10:40.597Z,17.31
2022-08-02T03:11:40.599Z,17.34
2022-08-02T03:12:40.589Z,17.31
2022-08-02T03:13:40.587Z,17.24
2022-08-02T03:14:40.586Z,17.34
2022-08-02T03:15:40.585Z,17.33
2022-08-02T03:16:40.576Z,17.29
2022-08-02T03:17:40.570Z,17.29
2022-08-02T03:18:40.572Z,17.23
2022-08-02T03:19:40.567Z,17.30
2022-08-02T03:20:40.564Z,17.24
2022-08-02T03:21:40.559Z,17.20
2022-08-02T03:22:40.556Z,17.23
2022-08-02T03:23:40.554Z,17.20
2022-08-02T03:24:40.549Z,17.20
2022-08-02T03:25:40.546Z,17.20
2022-08-02T03:26:40.543Z,17.15
2022-08-02T03:27:40.542Z,17.20
2022-08-02T03:28:40.536Z,17.05
2022-08-02T03:29:40.532Z,17.08
2022-08-02T03:30:40.532Z,17.09
2022-08-02T03:31:40.527Z,17.06
2022-08-02T03:32:40.526Z,17.11
2022-08-02T03:33:40.521Z,17.12
2022-08-02T03:34:40.516Z,17.14
2022-08-02T03:35:40.508Z,17.08
2022-08-02T03:36:40.509Z,16.99
2022-08-02T03:37:40.505Z,17.02
2022-08-02T03:38:40.501Z,17.02
2022-08-02T03:39:51.091Z,17.04
2022-08-02T03:40:40.496Z,16.94
2022-08-02T03:41:40.490Z,17.04
2022-08-02T03:42:40.487Z,16.94
2022-08-02T03:43:40.479Z,16.97
2022-08-02T03:44:40.479Z,16.97
2022-08-02T03:45:40.476Z,17.06
2022-08-02T03:46:40.476Z,17.02
2022-08-02T03:47:40.471Z,16.97
2022-08-02T03:48:40.465Z,16.96
2022-08-02T03:49:40.550Z,17.01
2022-08-02T03:50:40.459Z,17.02
2022-08-02T03:51:40.456Z,17.01
2022-08-02T03:52:40.452Z,17.02
2022-08-02T03:53:40.449Z,17.11
2022-08-02T03:54:45.602Z,16.96
2022-08-02T03:55:40.439Z,17.01
2022-08-02T03:56:40.442Z,17.08
2022-08-02T03:57:40.437Z,16.97
2022-08-02T03:58:40.427Z,16.99
2022-08-02T03:59:40.430Z,17.15
2022-08-02T04:00:40.454Z,17.14
2022-08-02T04:01:40.424Z,17.23
2022-08-02T04:02:40.419Z,17.27
2022-08-02T04:03:40.417Z,17.29
2022-08-02T04:04:40.413Z,17.34
2022-08-02T04:06:03.920Z,17.42
2022-08-02T04:06:41.761Z,17.41
2022-08-02T04:08:32.681Z,17.48
2022-08-02T04:08:40.400Z,17.46
2022-08-02T04:09:40.404Z,17.46
2022-08-02T04:10:40.395Z,17.56
2022-08-02T04:11:40.391Z,17.60
2022-08-02T04:12:40.387Z,17.64
2022-08-02T04:13:40.381Z,17.67
2022-08-02T04:14:40.384Z,17.60
2022-08-02T04:15:40.379Z,17.60
2022-08-02T04:16:40.374Z,17.60
2022-08-02T04:17:40.370Z,17.68
2022-08-02T04:18:40.372Z,17.60
2022-08-02T04:19:40.366Z,17.57
2022-08-02T04:20:40.362Z,17.65
2022-08-02T04:21:49.267Z,17.76
2022-08-02T04:22:40.366Z,17.76
2022-08-02T04:23:40.355Z,17.70
2022-08-02T04:24:40.351Z,17.74
2022-08-02T04:25:41.343Z,17.72
2022-08-02T04:26:40.343Z,17.71
2022-08-02T04:28:15.650Z,17.76
2022-08-02T04:28:40.385Z,17.86
2022-08-02T04:29:43.940Z,17.80
2022-08-02T04:30:40.329Z,17.89
2022-08-02T04:31:40.327Z,17.83
2022-08-02T04:32:40.321Z,17.83
2022-08-02T04:33:40.324Z,17.95
2022-08-02T04:34:40.321Z,17.85
2022-08-02T04:35:40.320Z,17.97
2022-08-02T04:36:40.317Z,18.04
2022-08-02T04:38:08.837Z,18.13
2022-08-02T04:38:40.308Z,18.11
2022-08-02T04:39:40.303Z,18.10
2022-08-02T04:40:40.307Z,18.16
2022-08-02T04:41:43.723Z,18.15
2022-08-02T04:42:40.291Z,18.23
2022-08-02T04:43:40.291Z,18.16
2022-08-02T04:44:40.286Z,18.16
2022-08-02T04:45:40.283Z,18.13
2022-08-02T04:46:40.280Z,18.20
2022-08-02T04:48:03.680Z,18.18
2022-08-02T04:48:40.275Z,18.20
2022-08-02T04:49:40.383Z,18.33
2022-08-02T04:50:40.267Z,18.31
2022-08-02T04:51:40.268Z,18.33
2022-08-02T04:52:45.446Z,18.71
2022-08-02T04:53:40.260Z,19.31
2022-08-02T04:54:40.257Z,19.77
2022-08-02T04:55:40.254Z,20.31
2022-08-02T04:56:40.255Z,20.70
2022-08-02T04:57:40.247Z,20.81
2022-08-02T04:58:41.005Z,20.77
2022-08-02T04:59:40.243Z,20.90
2022-08-02T05:00:40.295Z,20.85
2022-08-02T05:01:40.240Z,20.85
2022-08-02T05:02:40.237Z,20.92
2022-08-02T05:03:40.233Z,21.20
2022-08-02T05:04:40.230Z,21.64
2022-08-02T05:05:40.226Z,22.28
2022-08-02T05:06:40.221Z,22.72
2022-08-02T05:07:40.224Z,23.21
2022-08-02T05:08:40.219Z,23.63
2022-08-02T05:09:40.218Z,23.99
2022-08-02T05:10:40.216Z,24.36
2022-08-02T05:11:40.213Z,24.74
2022-08-02T05:12:40.210Z,25.13
2022-08-02T05:13:58.744Z,25.51
2022-08-02T05:14:40.207Z,25.72
2022-08-02T05:15:40.206Z,26.00
2022-08-02T05:16:40.203Z,26.33
2022-08-02T05:17:47.586Z,26.65
2022-08-02T05:18:40.199Z,26.93
2022-08-02T05:19:40.199Z,27.18
2022-08-02T05:20:40.198Z,27.29
2022-08-02T05:21:40.197Z,27.39
2022-08-02T05:22:40.198Z,27.35
2022-08-02T05:23:40.196Z,27.45
2022-08-02T05:24:40.193Z,27.60
2022-08-02T05:25:40.192Z,27.65
2022-08-02T05:26:40.195Z,27.82
2022-08-02T05:27:40.199Z,27.82
2022-08-02T05:28:40.190Z,27.75
2022-08-02T05:29:40.191Z,27.89
2022-08-02T05:30:40.191Z,28.22
2022-08-02T05:31:40.192Z,28.42
2022-08-02T05:32:40.190Z,28.57
2022-08-02T05:33:40.187Z,28.75
2022-08-02T05:34:40.194Z,28.94
2022-08-02T05:35:40.190Z,29.13
2022-08-02T05:36:42.176Z,29.20
2022-08-02T05:37:40.189Z,29.31
2022-08-02T05:38:40.188Z,29.49
2022-08-02T05:39:55.602Z,29.72
2022-08-02T05:40:54.586Z,29.79
2022-08-02T05:41:40.188Z,29.94
2022-08-02T05:42:40.191Z,30.10
2022-08-02T05:43:40.190Z,30.27
2022-08-02T05:44:40.190Z,30.53
2022-08-02T05:45:40.188Z,30.55
2022-08-02T05:46:40.191Z,30.55
2022-08-02T05:47:40.195Z,30.59
2022-08-02T05:48:40.195Z,30.72
2022-08-02T05:49:40.253Z,30.81
2022-08-02T05:50:40.196Z,30.94
2022-08-02T05:51:40.199Z,31.07
2022-08-02T05:52:40.200Z,31.10
2022-08-02T05:53:40.249Z,31.21
2022-08-02T05:54:40.208Z,31.21
2022-08-02T05:55:40.203Z,31.17
2022-08-02T05:56:40.202Z,30.99
2022-08-02T05:57:43.407Z,30.99
2022-08-02T05:58:40.206Z,31.06
2022-08-02T05:59:40.210Z,31.12
2022-08-02T06:00:40.209Z,31.37
2022-08-02T06:01:40.351Z,31.49
2022-08-02T06:02:40.213Z,31.61
2022-08-02T06:03:40.214Z,31.74
2022-08-02T06:04:40.217Z,31.76
2022-08-02T06:05:40.218Z,31.94
2022-08-02T06:06:40.222Z,32.16
2022-08-02T06:07:40.222Z,32.34
2022-08-02T06:08:42.510Z,32.38
2022-08-02T06:09:40.229Z,32.63
2022-08-02T06:10:40.234Z,32.59
2022-08-02T06:11:40.237Z,32.40
2022-08-02T06:12:40.235Z,32.41
2022-08-02T06:13:40.240Z,32.37
2022-08-02T06:14:40.247Z,32.31
2022-08-02T06:15:52.857Z,32.33
2022-08-02T06:16:41.979Z,32.31
2022-08-02T06:17:41.940Z,32.26
2022-08-02T06:18:40.248Z,32.19
2022-08-02T06:19:51.760Z,32.18
2022-08-02T06:20:40.258Z,32.12
2022-08-02T06:22:34.575Z,32.16
2022-08-02T06:22:40.462Z,32.31
2022-08-02T06:23:40.271Z,32.45
2022-08-02T06:24:40.271Z,32.71
2022-08-02T06:25:50.407Z,32.78
2022-08-02T06:26:40.276Z,32.82
2022-08-02T06:27:40.278Z,32.96
2022-08-02T06:28:40.280Z,32.90
2022-08-02T06:29:40.287Z,32.97
2022-08-02T06:30:40.294Z,32.92
2022-08-02T06:31:40.305Z,33.00
2022-08-02T06:32:40.298Z,33.05
2022-08-02T06:33:40.303Z,33.27
2022-08-02T06:34:40.307Z,33.32
2022-08-02T06:35:40.309Z,33.31
2022-08-02T06:36:40.312Z,32.92
2022-08-02T06:37:40.318Z,32.30
2022-08-02T06:38:40.321Z,31.99
2022-08-02T06:39:40.326Z,31.78
2022-08-02T06:40:40.328Z,31.61
2022-08-02T06:41:40.335Z,31.49
2022-08-02T06:42:40.332Z,31.62
2022-08-02T06:43:40.351Z,31.73
2022-08-02T06:44:48.989Z,32.00
2022-08-02T06:45:40.347Z,32.23
2022-08-02T06:47:11.091Z,32.46
2022-08-02T06:47:40.361Z,32.75
2022-08-02T06:48:40.361Z,33.02
2022-08-02T06:49:52.382Z,33.36
2022-08-02T06:50:40.368Z,33.71
2022-08-02T06:51:40.373Z,33.76
2022-08-02T06:52:40.377Z,33.80
2022-08-02T06:53:40.387Z,33.94
2022-08-02T06:54:40.386Z,33.96
2022-08-02T06:55:43.996Z,33.76
2022-08-02T06:56:40.398Z,33.28
2022-08-02T06:57:40.405Z,32.95
2022-08-02T06:58:40.403Z,32.53
2022-08-02T06:59:40.409Z,32.26
2022-08-02T07:00:40.411Z,32.26
2022-08-02T07:01:40.457Z,32.34
2022-08-02T07:02:40.455Z,32.36
2022-08-02T07:03:40.427Z,32.70
2022-08-02T07:04:40.432Z,32.64
2022-08-02T07:05:40.436Z,32.64
2022-08-02T07:06:40.441Z,32.59
2022-08-02T07:07:40.445Z,32.51
2022-08-02T07:08:40.457Z,32.63
2022-08-02T07:09:56.603Z,32.74
2022-08-02T07:10:40.460Z,32.86
2022-08-02T07:11:40.469Z,32.85
2022-08-02T07:12:40.468Z,32.90
2022-08-02T07:13:40.477Z,32.78
2022-08-02T07:14:40.481Z,32.75
2022-08-02T07:15:40.487Z,32.65
2022-08-02T07:16:40.487Z,32.89
2022-08-02T07:17:40.494Z,32.74
2022-08-02T07:18:40.497Z,32.92
2022-08-02T07:19:40.504Z,33.20
2022-08-02T07:20:40.506Z,33.58
2022-08-02T07:21:56.743Z,33.98
2022-08-02T07:22:40.515Z,34.21
2022-08-02T07:23:40.524Z,34.02
2022-08-02T07:24:40.534Z,33.62
2022-08-02T07:26:03.979Z,33.17
2022-08-02T07:27:01.540Z,33.07
2022-08-02T07:27:40.542Z,33.47
2022-08-02T07:28:40.544Z,33.80
2022-08-02T07:29:46.502Z,34.03
2022-08-02T07:30:40.555Z,34.32
2022-08-02T07:31:40.564Z,34.61
2022-08-02T07:32:40.567Z,34.97
2022-08-02T07:33:43.297Z,34.93
2022-08-02T07:34:40.576Z,34.52
2022-08-02T07:35:40.579Z,34.23
2022-08-02T07:36:40.586Z,34.20
2022-08-02T07:37:55.660Z,34.32
2022-08-02T07:38:40.598Z,34.78
2022-08-02T07:39:40.601Z,35.08
2022-08-02T07:40:40.607Z,35.46
2022-08-02T07:41:40.613Z,35.68
2022-08-02T07:42:40.622Z,35.22
2022-08-02T07:43:40.626Z,35.04
2022-08-02T07:44:40.631Z,35.10
2022-08-02T07:45:45.665Z,35.23
2022-08-02T07:46:40.644Z,35.61
2022-08-02T07:47:40.645Z,36.00
2022-08-02T07:48:40.652Z,36.23
2022-08-02T07:49:40.686Z,36.12
2022-08-02T07:50:40.665Z,35.26
2022-08-02T07:51:40.675Z,34.01
2022-08-02T07:52:40.722Z,33.69
2022-08-02T07:53:50.635Z,33.50
2022-08-02T07:54:40.689Z,33.43
2022-08-02T07:55:40.900Z,33.76
2022-08-02T07:56:40.708Z,33.95
2022-08-02T07:57:45.782Z,33.96
2022-08-02T07:58:40.712Z,34.36
2022-08-02T07:59:40.718Z,34.47
2022-08-02T08:00:40.725Z,34.67
2022-08-02T08:01:40.790Z,35.08
2022-08-02T08:02:40.736Z,35.61
2022-08-02T08:03:40.745Z,35.85
2022-08-02T08:04:40.751Z,35.80
2022-08-02T08:05:40.782Z,35.85
2022-08-02T08:06:40.756Z,35.97
2022-08-02T08:07:40.775Z,36.12
2022-08-02T08:08:40.801Z,36.33
2022-08-02T08:09:40.775Z,36.51
2022-08-02T08:10:40.788Z,36.23
2022-08-02T08:11:40.796Z,36.27
2022-08-02T08:12:40.806Z,35.74
2022-08-02T08:13:40.801Z,35.24
2022-08-02T08:14:40.809Z,35.39
2022-08-02T08:15:40.814Z,35.34
2022-08-02T08:16:40.822Z,35.48
2022-08-02T08:17:40.827Z,35.76
2022-08-02T08:18:40.832Z,35.97
2022-08-02T08:19:50.847Z,36.18
2022-08-02T08:20:40.846Z,35.30
2022-08-02T08:21:40.853Z,34.90
2022-08-02T08:22:40.858Z,34.99
2022-08-02T08:23:40.865Z,34.43
2022-08-02T08:24:40.869Z,34.42
2022-08-02T08:25:41.334Z,33.89
2022-08-02T08:26:40.885Z,33.52
2022-08-02T08:27:40.891Z,33.42
2022-08-02T08:28:40.893Z,32.95
2022-08-02T08:29:40.899Z,32.45
2022-08-02T08:30:40.906Z,32.33
2022-08-02T08:31:40.908Z,31.10
2022-08-02T08:32:40.914Z,30.32
2022-08-02T08:33:40.917Z,29.82
2022-08-02T08:34:40.921Z,29.51
2022-08-02T08:35:40.928Z,29.23
2022-08-02T08:36:40.929Z,29.07
2022-08-02T08:37:40.939Z,28.74
2022-08-02T08:38:40.940Z,28.30
2022-08-02T08:39:42.046Z,27.96
2022-08-02T08:40:40.947Z,27.60
2022-08-02T08:41:40.951Z,27.29
2022-08-02T08:42:40.957Z,26.95
2022-08-02T08:43:40.956Z,26.65
2022-08-02T08:44:41.145Z,26.45
2022-08-02T08:45:40.963Z,26.48
2022-08-02T08:46:40.965Z,26.51
2022-08-02T08:47:40.977Z,26.47
2022-08-02T08:48:40.972Z,26.51
2022-08-02T08:49:52.854Z,26.59
2022-08-02T08:50:40.977Z,26.59
2022-08-02T08:51:40.981Z,26.43
2022-08-02T08:52:40.982Z,26.48
2022-08-02T08:53:41.136Z,26.44
2022-08-02T08:54:41.061Z,26.52
2022-08-02T08:55:40.991Z,26.37
2022-08-02T08:56:40.992Z,26.45
2022-08-02T08:57:40.998Z,26.52
2022-08-02T08:58:41.003Z,26.77
2022-08-02T08:59:41.006Z,27.11
2022-08-02T09:00:41.006Z,27.65
2022-08-02T09:01:49.809Z,28.14
2022-08-02T09:02:41.011Z,28.72
2022-08-02T09:03:41.013Z,29.20
2022-08-02T09:04:41.021Z,29.54
2022-08-02T09:05:41.021Z,30.16
2022-08-02T09:06:41.024Z,30.75
2022-08-02T09:07:41.027Z,30.92
2022-08-02T09:08:41.030Z,31.10
2022-08-02T09:09:41.035Z,30.81
2022-08-02T09:10:41.040Z,30.16
2022-08-02T09:11:41.042Z,29.81
2022-08-02T09:12:41.046Z,29.44
2022-08-02T09:13:46.138Z,29.05
2022-08-02T09:14:41.049Z,28.52
2022-08-02T09:15:41.059Z,28.15
2022-08-02T09:16:41.053Z,27.73
2022-08-02T09:17:41.058Z,27.64
2022-08-02T09:18:41.060Z,27.39
2022-08-02T09:19:46.274Z,27.25
2022-08-02T09:20:41.064Z,27.12
2022-08-02T09:21:41.066Z,26.95
2022-08-02T09:22:41.068Z,26.78
2022-08-02T09:23:41.074Z,26.63
2022-08-02T09:24:41.070Z,26.58
2022-08-02T09:25:41.077Z,26.37
2022-08-02T09:26:41.080Z,26.33
2022-08-02T09:27:41.081Z,26.38
2022-08-02T09:28:41.080Z,26.25
2022-08-02T09:30:05.251Z,26.16
2022-08-02T09:30:41.088Z,25.98
2022-08-02T09:31:49.411Z,25.83
2022-08-02T09:32:41.089Z,25.65
2022-08-02T09:33:41.092Z,25.50
2022-08-02T09:34:41.093Z,25.44
2022-08-02T09:36:05.235Z,25.48
2022-08-02T09:36:41.098Z,25.48
2022-08-02T09:37:42.044Z,25.55
2022-08-02T09:38:41.102Z,25.58
2022-08-02T09:39:41.103Z,25.48
2022-08-02T09:40:41.107Z,25.23
2022-08-02T09:41:41.107Z,25.17
2022-08-02T09:42:41.111Z,25.10
2022-08-02T09:44:03.220Z,25.23
2022-08-02T09:44:41.111Z,25.17
2022-08-02T09:45:41.113Z,25.18
2022-08-02T09:46:41.117Z,25.26
2022-08-02T09:47:41.116Z,25.33
2022-08-02T09:48:41.117Z,25.38
2022-08-02T09:49:41.203Z,25.40
2022-08-02T09:50:41.123Z,25.36
2022-08-02T09:51:41.121Z,25.48
2022-08-02T09:52:43.697Z,25.48
2022-08-02T09:53:41.122Z,25.35
2022-08-02T09:54:41.130Z,25.46
2022-08-02T09:55:41.131Z,25.51
2022-08-02T09:56:41.135Z,25.59
2022-08-02T09:57:41.131Z,25.62
2022-08-02T09:58:41.135Z,25.72
2022-08-02T09:59:41.134Z,25.68
2022-08-02T10:00:52.541Z,25.58
2022-08-02T10:01:46.997Z,25.48
2022-08-02T10:02:41.165Z,25.38
2022-08-02T10:03:41.143Z,25.41
2022-08-02T10:04:52.326Z,25.43
2022-08-02T10:05:43.645Z,25.44
2022-08-02T10:06:41.145Z,25.41
2022-08-02T10:07:41.145Z,25.53
2022-08-02T10:08:41.146Z,25.53
2022-08-02T10:09:46.384Z,25.60
2022-08-02T10:10:41.150Z,25.66
2022-08-02T10:11:41.153Z,25.69
2022-08-02T10:12:41.153Z,25.68
2022-08-02T10:13:41.156Z,25.75
2022-08-02T10:14:41.157Z,25.73
2022-08-02T10:15:50.281Z,25.73
2022-08-02T10:16:41.158Z,25.81
2022-08-02T10:17:41.159Z,25.87
2022-08-02T10:18:41.709Z,25.78
2022-08-02T10:20:02.754Z,25.91
2022-08-02T10:20:41.164Z,25.88
2022-08-02T10:21:46.304Z,25.80
2022-08-02T10:22:41.167Z,25.70
2022-08-02T10:23:41.166Z,25.70
2022-08-02T10:24:48.285Z,25.69
2022-08-02T10:25:41.168Z,25.59
2022-08-02T10:26:41.174Z,25.54
2022-08-02T10:28:04.228Z,25.36
2022-08-02T10:28:41.168Z,25.40
2022-08-02T10:29:50.484Z,25.43
2022-08-02T10:30:41.175Z,25.40
2022-08-02T10:31:41.179Z,25.58
2022-08-02T10:32:41.180Z,25.72
2022-08-02T10:33:41.192Z,25.75
2022-08-02T10:34:41.182Z,25.98
2022-08-02T10:35:41.184Z,26.06
2022-08-02T10:36:41.183Z,26.15
2022-08-02T10:37:41.184Z,26.02
2022-08-02T10:38:41.190Z,26.23
2022-08-02T10:39:41.189Z,26.18
2022-08-02T10:40:41.189Z,26.21
2022-08-02T10:41:41.189Z,26.16
2022-08-02T10:42:41.194Z,26.15
2022-08-02T10:43:41.193Z,26.16
2022-08-02T10:44:41.194Z,26.34
2022-08-02T10:45:41.196Z,26.31
2022-08-02T10:46:41.201Z,26.40
2022-08-02T10:47:41.200Z,26.52
2022-08-02T10:48:41.201Z,26.56
2022-08-02T10:49:41.297Z,26.55
2022-08-02T10:50:41.205Z,26.60
2022-08-02T10:51:41.273Z,26.65
2022-08-02T10:52:41.222Z,26.55
2022-08-02T10:53:41.209Z,26.60
2022-08-02T10:54:41.210Z,26.58
2022-08-02T10:55:41.214Z,26.70
2022-08-02T10:56:41.213Z,26.71
2022-08-02T10:57:41.214Z,26.60
2022-08-02T10:58:41.218Z,26.62
2022-08-02T10:59:41.218Z,26.55
2022-08-02T11:00:41.267Z,26.51
2022-08-02T11:01:41.259Z,26.55
2022-08-02T11:02:41.228Z,26.56
2022-08-02T11:03:41.260Z,26.59
2022-08-02T11:04:41.233Z,26.53
2022-08-02T11:05:43.042Z,26.38
2022-08-02T11:06:41.230Z,26.41
2022-08-02T11:07:41.232Z,26.31
2022-08-02T11:08:41.237Z,26.31
2022-08-02T11:09:41.238Z,26.23
2022-08-02T11:10:41.234Z,26.29
2022-08-02T11:11:53.761Z,26.15
2022-08-02T11:12:41.236Z,26.03
2022-08-02T11:13:41.237Z,26.05
2022-08-02T11:14:41.240Z,26.02
2022-08-02T11:15:41.244Z,25.91
2022-08-02T11:16:41.245Z,25.91
2022-08-02T11:17:41.267Z,25.95
2022-08-02T11:18:41.248Z,26.00
2022-08-02T11:19:41.531Z,25.75
2022-08-02T11:20:41.249Z,25.63
2022-08-02T11:21:41.250Z,25.73
2022-08-02T11:22:41.251Z,25.75
2022-08-02T11:23:44.755Z,25.70
2022-08-02T11:24:41.255Z,25.88
2022-08-02T11:26:03.315Z,25.96
2022-08-02T11:26:41.261Z,25.98
2022-08-02T11:27:41.260Z,26.03
2022-08-02T11:28:41.257Z,26.15
2022-08-02T11:29:41.268Z,25.91
2022-08-02T11:30:41.264Z,25.88
2022-08-02T11:31:41.308Z,25.96
2022-08-02T11:32:41.263Z,25.87
2022-08-02T11:33:41.272Z,25.70
2022-08-02T11:34:41.269Z,25.72
2022-08-02T11:35:41.269Z,25.77
2022-08-02T11:36:41.274Z,25.83
2022-08-02T11:37:41.274Z,25.75
2022-08-02T11:38:41.276Z,25.72
2022-08-02T11:39:41.277Z,25.91
2022-08-02T11:40:41.274Z,25.90
2022-08-02T11:41:47.016Z,25.91
2022-08-02T11:42:41.277Z,26.00
2022-08-02T11:43:41.279Z,26.02
2022-08-02T11:44:41.282Z,26.22
2022-08-02T11:45:41.282Z,26.25
2022-08-02T11:46:41.284Z,26.25
2022-08-02T11:47:41.294Z,26.25
2022-08-02T11:48:41.289Z,26.22
2022-08-02T11:49:41.399Z,26.18
2022-08-02T11:50:41.290Z,26.23
2022-08-02T11:51:42.479Z,26.19
2022-08-02T11:52:41.285Z,26.19
2022-08-02T11:53:41.290Z,26.16
2022-08-02T11:54:41.293Z,26.15
2022-08-02T11:55:41.292Z,26.21
2022-08-02T11:56:41.295Z,26.22
2022-08-02T11:58:02.982Z,26.40
2022-08-02T11:58:41.847Z,26.43
2022-08-02T11:59:41.299Z,26.43
2022-08-02T12:00:41.302Z,26.58
2022-08-02T12:01:45.013Z,26.55
2022-08-02T12:02:41.304Z,26.53
2022-08-02T12:03:41.358Z,26.53
2022-08-02T12:04:41.309Z,26.63
2022-08-02T12:06:04.765Z,26.62
2022-08-02T12:06:41.309Z,26.65
2022-08-02T12:07:46.054Z,26.55
2022-08-02T12:08:41.311Z,26.74
2022-08-02T12:09:41.488Z,26.65
2022-08-02T12:10:41.318Z,26.65
2022-08-02T12:11:41.324Z,26.60
2022-08-02T12:12:41.324Z,26.55
2022-08-02T12:13:41.317Z,26.53
2022-08-02T12:14:41.320Z,26.51
2022-08-02T12:15:41.323Z,26.62
2022-08-02T12:16:41.326Z,26.65
2022-08-02T12:17:41.323Z,26.63
2022-08-02T12:18:41.326Z,26.80
2022-08-02T12:19:41.326Z,26.85
2022-08-02T12:20:41.328Z,26.77
2022-08-02T12:21:41.328Z,26.68
2022-08-02T12:22:42.081Z,26.66
2022-08-02T12:23:59.940Z,26.60
2022-08-02T12:24:41.336Z,26.38
2022-08-02T12:25:41.336Z,26.43
2022-08-02T12:26:41.336Z,26.22
2022-08-02T12:27:41.364Z,26.21
2022-08-02T12:28:41.341Z,26.07
2022-08-02T12:29:59.228Z,26.13
2022-08-02T12:30:41.342Z,26.02
2022-08-02T12:31:55.823Z,26.21
2022-08-02T12:32:41.345Z,26.26
2022-08-02T12:33:41.347Z,26.33
2022-08-02T12:34:41.348Z,26.38
2022-08-02T12:35:41.350Z,26.51
2022-08-02T12:36:41.347Z,26.62
2022-08-02T12:37:41.349Z,26.73
2022-08-02T12:38:41.353Z,26.75
2022-08-02T12:39:41.354Z,26.81
2022-08-02T12:40:41.359Z,26.92
2022-08-02T12:41:54.762Z,26.97
2022-08-02T12:42:41.363Z,27.03
2022-08-02T12:43:41.358Z,27.07
2022-08-02T12:44:41.363Z,27.02
2022-08-02T12:45:43.272Z,27.12
2022-08-02T12:46:42.244Z,26.99
2022-08-02T12:47:41.365Z,26.83
2022-08-02T12:48:56.580Z,26.68
2022-08-02T12:49:41.396Z,26.73
2022-08-02T12:50:41.370Z,26.62
2022-08-02T12:51:56.512Z,26.62
2022-08-02T12:52:41.373Z,26.59